Impacts METAR Board
IDs:

KSFO - San Francisco Intl, CA, US

Updated at: 0800 UTC 19 Jun 2018
Potential Impact None Slight Moderate High
Time 18/20Z 18/21Z 18/22Z 18/23Z 19/00Z 19/01Z 19/02Z 19/03Z 19/04Z 19/05Z 19/06Z 19/07Z 19/08Z
Temp70 68 68 68 66 63 61 58 57 57 57 57 56
Dewpt53 52 52 51 51 52 51 50 50 50 50 50 50
Altim30.03 30.04 30.04 30.02 30.01 30.00 30.01 30.01 30.02 30.04 30.05 30.04 30.03
VIS10 10 10 10 10 10 10 10 10 10 10 10 10
CIG200 200 -- -- -- -- -- -- -- -- -- -- --
CoverBKNBKNSCTSCTFEWFEWFEWFEWFEWFEWSCTSCTSCT
FltCatVFRVFRVFRVFRVFRVFRVFRVFRVFRVFRVFRVFRVFR
WX--------------------------
WDir310290280290290290280280290300280280280
WSpd15 20 18 18 20 21 20 18 11 14 11 11 14
WGst-- -- -- -- -- 26 -- -- -- -- -- -- --
Raw hourly METARs
KSFO 181956Z 31015KT 10SM FEW020 BKN200 21/12 A3003 RMK AO2 SLP170 T02110117
KSFO 182056Z 29020KT 10SM FEW020 BKN200 20/11 A3004 RMK AO2 SLP171 T02000111 55007
KSFO 182156Z 28018KT 10SM FEW010 SCT200 20/11 A3004 RMK AO2 SLP172 T02000111
KSFO 182256Z 29018KT 10SM FEW009 SCT200 20/11 A3002 RMK AO2 SLP167 T02000106
KSFO 182356Z 29020KT 10SM FEW009 19/11 A3001 RMK AO2 SLP162 T01890106 10217 20189 58009
KSFO 190056Z 29021G26KT 10SM FEW007 17/11 A3000 RMK AO2 PK WND 28026/0007 SLP158 T01720111
KSFO 190156Z 28020KT 10SM FEW005 16/11 A3001 RMK AO2 PK WND 28029/0112 SLP161 T01610106
KSFO 190256Z 28018KT 10SM FEW005 14/10 A3001 RMK AO2 SLP162 T01440100 53001
KSFO 190356Z 29011KT 10SM FEW005 14/10 A3002 RMK AO2 SLP165 T01390100
KSFO 190456Z 30014KT 10SM FEW007 14/10 A3004 RMK AO2 SLP171 T01390100
KSFO 190556Z 28011KT 10SM SCT007 14/10 A3005 RMK AO2 SLP174 T01390100 10189 20133 53012
KSFO 190656Z 28011KT 10SM SCT007 14/10 A3004 RMK AO2 SLP171 T01390100
KSFO 190756Z 28014KT 10SM SCT007 13/10 A3003 RMK AO2 SLP170 T01330100 402170133



Page loaded:  08:54 UTC  |   01:54 AM Pacific  |   02:54 AM Mountain  |   03:54 AM Central  |   04:54 AM Eastern

 

ADVISORIES

FORECASTS

FORECASTS

OBSERVATIONS

USER TOOLS

ABOUT US